Time;durP1;ratioP1;P1;durP2;ratioP2;P2;SDS_P1;SDS_P2;PMS_P1;PMS_P2;Temp;Humidity;BMP_temperature;BMP_pressure;BME280_temperature;BME280_humidity;BME280_pressure;Samples;Min_cycle;Max_cycle;Signal;HPM_P1;HPM_P2
2022/11/20 00:02:10;;;;;;;;;;;;;;;;;;5013099;28;19992;-62
2022/11/20 00:04:36;;;;;;;;;;;;;;;;;;5012234;28;19913;-61
2022/11/20 00:07:02;;;;;;;;;;;;;;;;;;5012464;28;19914;-62
2022/11/20 00:09:28;;;;;;;;;;;;;;;;;;5012683;28;19909;-62
2022/11/20 00:11:54;;;;;;;;;;;;;;;;;;5017169;28;19909;-62
2022/11/20 00:14:20;;;;;;;;;;;;;;;;;;5012626;28;20415;-62
2022/11/20 00:16:46;;;;;;;;;;;;;;;;;;5014476;28;20589;-63
2022/11/20 00:19:12;;;;;;;;;;;;;;;;;;5012473;28;19919;-62
2022/11/20 00:21:38;;;;;;;;;;;;;;;;;;5012254;28;19955;-62
2022/11/20 00:24:03;;;;;;;;;;;;;;;;;;5028068;28;19956;-62
2022/11/20 00:26:30;;;;;;;;;;;;;;;;;;5031124;28;19920;-61
2022/11/20 00:28:55;;;;;;;;;;;;;;;;;;5022066;28;19921;-62
2022/11/20 00:31:21;;;;;;;;;;;;;;;;;;5013129;28;19980;-61
2022/11/20 00:33:47;;;;;;;;;;;;;;;;;;5011745;28;19992;-62
2022/11/20 00:36:13;;;;;;;;;;;;;;;;;;5014709;28;19932;-62
2022/11/20 00:38:39;;;;;;;;;;;;;;;;;;5019448;28;19909;-63
2022/11/20 00:41:05;;;;;;;;;;;;;;;;;;5031416;28;19909;-62
2022/11/20 00:43:31;;;;;;;;;;;;;;;;;;5031663;28;19962;-61
2022/11/20 00:45:57;;;;;;;;;;;;;;;;;;5022951;28;19913;-62
2022/11/20 00:48:23;;;;;;;;;;;;;;;;;;5011823;28;19921;-61
2022/11/20 00:50:49;;;;;;;;;;;;;;;;;;5017127;28;19910;-61
2022/11/20 00:53:15;;;;;;;;;;;;;;;;;;5012473;28;20000;-62
2022/11/20 00:55:40;;;;;;;;;;;;;;;;;;5018332;28;19925;-62
2022/11/20 00:58:06;;;;;;;;;;;;;;;;;;5011694;28;19952;-61
2022/11/20 01:00:32;;;;;;;;;;;;;;;;;;5041322;28;19913;-62
2022/11/20 01:02:58;;;;;;;;;;;;;;;;;;5029173;28;19913;-62
2022/11/20 01:05:24;;;;;;;;;;;;;;;;;;5030570;28;19921;-61
2022/11/20 01:07:50;;;;;;;;;;;;;;;;;;5030488;28;19962;-62
2022/11/20 01:10:17;;;;;;;;;;;;;;;;;;5030933;28;19916;-61
2022/11/20 01:12:43;;;;;;;;;;;;;;;;;;5013393;28;20469;-62
2022/11/20 01:15:08;;;;;;;;;;;;;;;;;;5011305;28;19921;-61
2022/11/20 01:17:34;;;;;;;;;;;;;;;;;;5011449;28;19913;-62
2022/11/20 01:20:00;;;;;;;;;;;;;;;;;;5011440;28;19910;-61
2022/11/20 01:22:26;;;;;;;;;;;;;;;;;;5011287;28;20063;-61
2022/11/20 01:24:52;;;;;;;;;;;;;;;;;;5011638;28;20279;-63
2022/11/20 01:27:18;;;;;;;;;;;;;;;;;;5011359;28;19921;-62
2022/11/20 01:29:44;;;;;;;;;;;;;;;;;;5011812;28;19913;-62
2022/11/20 01:32:10;;;;;;;;;;;;;;;;;;5011482;28;19916;-62
2022/11/20 01:34:36;;;;;;;;;;;;;;;;;;5011742;28;20278;-61
2022/11/20 01:37:02;;;;;;;;;;;;;;;;;;5010935;28;19910;-61
2022/11/20 01:39:27;;;;;;;;;;;;;;;;;;5011188;28;19960;-61
2022/11/20 01:44:38;;;;;;;;;;;;;;;;;;5010507;28;19916;-60
2022/11/20 01:47:04;;;;;;;;;;;;;;;;;;5011887;28;19913;-61
2022/11/20 01:49:30;;;;;;;;;;;;;;;;;;5032143;28;19917;-62
2022/11/20 01:51:56;;;;;;;;;;;;;;;;;;5010567;28;19999;-61
2022/11/20 01:54:22;;;;;;;;;;;;;;;;;;5010417;28;20020;-61
2022/11/20 01:56:47;;;;;;;;;;;;;;;;;;5029068;28;19913;-61
2022/11/20 01:59:13;;;;;;;;;;;;;;;;;;5016397;28;19910;-61
2022/11/20 02:01:39;;;;;;;;;;;;;;;;;;5010229;28;19988;-61
2022/11/20 02:04:05;;;;;;;;;;;;;;;;;;5010438;28;19917;-61
2022/11/20 02:06:31;;;;;;;;;;;;;;;;;;5011208;28;19920;-61
2022/11/20 02:08:57;;;;;;;;;;;;;;;;;;5009358;28;20015;-61
2022/11/20 02:11:23;;;;;;;;;;;;;;;;;;5010514;28;19992;-62
2022/11/20 02:13:49;;;;;;;;;;;;;;;;;;5009993;28;20374;-60
2022/11/20 02:16:15;;;;;;;;;;;;;;;;;;5009775;28;20309;-61
2022/11/20 02:18:41;;;;;;;;;;;;;;;;;;5010318;28;19921;-62
2022/11/20 02:21:06;;;;;;;;;;;;;;;;;;5010015;28;19967;-61
2022/11/20 02:23:33;;;;;;;;;;;;;;;;;;5018764;28;19964;-62
2022/11/20 02:25:58;;;;;;;;;;;;;;;;;;5010185;28;20366;-61
2022/11/20 02:28:24;;;;;;;;;;;;;;;;;;5023725;28;19940;-61
2022/11/20 02:30:50;;;;;;;;;;;;;;;;;;5012286;28;19952;-61
2022/11/20 02:33:16;;;;;;;;;;;;;;;;;;5009842;28;19917;-62
2022/11/20 02:35:42;;;;;;;;;;;;;;;;;;5022293;28;19921;-61
2022/11/20 02:38:08;;;;;;;;;;;;;;;;;;5009762;28;20007;-61
2022/11/20 02:40:34;;;;;;;;;;;;;;;;;;5009980;28;19920;-62
2022/11/20 02:43:00;;;;;;;;;;;;;;;;;;5011559;28;19914;-62
2022/11/20 02:45:26;;;;;;;;;;;;;;;;;;5025721;28;19913;-61
2022/11/20 02:47:51;;;;;;;;;;;;;;;;;;5012794;28;19910;-61
2022/11/20 02:50:17;;;;;;;;;;;;;;;;;;5010154;28;19967;-61
2022/11/20 02:52:43;;;;;;;;;;;;;;;;;;5010082;28;20859;-61
2022/11/20 02:55:10;;;;;;;;;;;;;;;;;;5009977;28;19988;-61
2022/11/20 02:57:36;;;;;;;;;;;;;;;;;;5010722;28;20326;-61
2022/11/20 03:00:01;;;;;;;;;;;;;;;;;;5013962;28;20464;-62
2022/11/20 03:02:27;;;;;;;;;;;;;;;;;;5037720;28;19948;-62
2022/11/20 03:04:53;;;;;;;;;;;;;;;;;;5028926;28;19922;-62
2022/11/20 03:07:19;;;;;;;;;;;;;;;;;;5028632;28;19913;-62
2022/11/20 03:09:45;;;;;;;;;;;;;;;;;;5028493;28;19913;-61
2022/11/20 03:12:11;;;;;;;;;;;;;;;;;;5029201;28;20051;-62
2022/11/20 03:14:37;;;;;;;;;;;;;;;;;;5028270;28;19917;-61
2022/11/20 03:17:03;;;;;;;;;;;;;;;;;;5028591;28;19913;-60
2022/11/20 03:19:28;;;;;;;;;;;;;;;;;;5029288;28;20011;-62
2022/11/20 03:21:54;;;;;;;;;;;;;;;;;;5032176;28;20609;-61
2022/11/20 03:24:20;;;;;;;;;;;;;;;;;;5026052;28;19912;-62
2022/11/20 03:26:46;;;;;;;;;;;;;;;;;;5020018;28;20357;-62
2022/11/20 03:29:12;;;;;;;;;;;;;;;;;;5024811;28;20459;-62
2022/11/20 03:31:40;;;;;;;;;;;;;;;;;;5013030;28;19910;-62
2022/11/20 03:34:06;;;;;;;;;;;;;;;;;;5012958;28;19918;-62
2022/11/20 03:36:31;;;;;;;;;;;;;;;;;;5014111;28;19928;-61
2022/11/20 03:38:57;;;;;;;;;;;;;;;;;;5018299;28;20020;-61
2022/11/20 03:41:23;;;;;;;;;;;;;;;;;;5015005;28;19909;-61
2022/11/20 03:43:49;;;;;;;;;;;;;;;;;;5012582;28;19910;-61
2022/11/20 03:46:15;;;;;;;;;;;;;;;;;;5014956;28;19948;-61
2022/11/20 03:48:41;;;;;;;;;;;;;;;;;;5013020;28;19913;-62
2022/11/20 03:51:07;;;;;;;;;;;;;;;;;;5017440;28;19909;-62
2022/11/20 03:53:33;;;;;;;;;;;;;;;;;;5031908;28;19913;-61
2022/11/20 03:55:58;;;;;;;;;;;;;;;;;;5015757;28;19964;-61
2022/11/20 03:58:24;;;;;;;;;;;;;;;;;;5040121;28;19949;-62
2022/11/20 04:00:50;;;;;;;;;;;;;;;;;;5013140;28;19914;-61
2022/11/20 04:03:16;;;;;;;;;;;;;;;;;;5012690;28;19968;-61
2022/11/20 04:05:42;;;;;;;;;;;;;;;;;;5013598;28;20004;-64
2022/11/20 04:08:08;;;;;;;;;;;;;;;;;;5017281;28;19920;-61
2022/11/20 04:10:34;;;;;;;;;;;;;;;;;;5012324;28;19968;-61
2022/11/20 04:13:00;;;;;;;;;;;;;;;;;;5011838;28;19909;-62
2022/11/20 04:15:25;;;;;;;;;;;;;;;;;;5012928;28;20389;-61
2022/11/20 04:17:51;;;;;;;;;;;;;;;;;;5012910;28;19971;-61
2022/11/20 04:20:17;;;;;;;;;;;;;;;;;;5013768;28;20307;-62
2022/11/20 04:22:43;;;;;;;;;;;;;;;;;;5012190;28;20012;-61
2022/11/20 04:25:09;;;;;;;;;;;;;;;;;;5011945;28;19993;-61
2022/11/20 04:27:35;;;;;;;;;;;;;;;;;;5011737;28;19921;-60
2022/11/20 04:30:01;;;;;;;;;;;;;;;;;;5029252;28;19909;-61
2022/11/20 04:32:27;;;;;;;;;;;;;;;;;;5015053;28;19910;-61
2022/11/20 04:34:53;;;;;;;;;;;;;;;;;;5030301;28;19924;-61
2022/11/20 04:37:18;;;;;;;;;;;;;;;;;;5030671;28;20332;-61
2022/11/20 04:39:44;;;;;;;;;;;;;;;;;;5026485;28;19914;-61
2022/11/20 04:42:29;;;;;;;;;;;;;;;;;;5013771;28;20000;-60
2022/11/20 04:44:55;;;;;;;;;;;;;;;;;;5025116;28;19975;-60
2022/11/20 04:47:20;;;;;;;;;;;;;;;;;;5030881;28;19917;-61
2022/11/20 04:49:46;;;;;;;;;;;;;;;;;;5030612;28;19912;-61
2022/11/20 04:52:12;;;;;;;;;;;;;;;;;;5030826;28;19909;-61
2022/11/20 04:54:38;;;;;;;;;;;;;;;;;;5017634;28;20402;-61
2022/11/20 04:57:04;;;;;;;;;;;;;;;;;;5030320;28;19909;-62
2022/11/20 04:59:30;;;;;;;;;;;;;;;;;;5030685;28;19956;-61
2022/11/20 05:01:56;;;;;;;;;;;;;;;;;;5030570;28;19917;-61
2022/11/20 05:04:22;;;;;;;;;;;;;;;;;;5030649;28;19914;-61
2022/11/20 05:06:47;;;;;;;;;;;;;;;;;;5019473;28;19949;-61
2022/11/20 05:09:13;;;;;;;;;;;;;;;;;;5010876;28;19964;-61
2022/11/20 05:11:39;;;;;;;;;;;;;;;;;;5011426;28;20000;-60
2022/11/20 05:14:05;;;;;;;;;;;;;;;;;;5012755;28;20000;-61
2022/11/20 05:16:31;;;;;;;;;;;;;;;;;;5011798;28;19917;-61
2022/11/20 05:18:57;;;;;;;;;;;;;;;;;;5011372;28;20293;-61
2022/11/20 05:21:23;;;;;;;;;;;;;;;;;;5011498;28;19909;-61
2022/11/20 05:23:49;;;;;;;;;;;;;;;;;;5019193;28;20512;-63
2022/11/20 05:26:15;;;;;;;;;;;;;;;;;;5011183;28;19914;-61
2022/11/20 05:28:41;;;;;;;;;;;;;;;;;;5022123;28;19925;-59
2022/11/20 05:31:07;;;;;;;;;;;;;;;;;;5015343;28;19913;-61
2022/11/20 05:33:32;;;;;;;;;;;;;;;;;;5010985;28;19920;-61
2022/11/20 05:35:58;;;;;;;;;;;;;;;;;;5010994;28;20012;-61
2022/11/20 05:38:24;;;;;;;;;;;;;;;;;;5015621;28;19913;-61
2022/11/20 05:40:50;;;;;;;;;;;;;;;;;;5010689;28;19936;-61
2022/11/20 05:43:16;;;;;;;;;;;;;;;;;;5016820;28;20088;-61
2022/11/20 05:45:42;;;;;;;;;;;;;;;;;;5010978;28;19917;-62
2022/11/20 05:48:08;;;;;;;;;;;;;;;;;;5011263;28;20390;-61
2022/11/20 05:50:34;;;;;;;;;;;;;;;;;;5013780;28;19909;-61
2022/11/20 05:53:00;;;;;;;;;;;;;;;;;;5010529;28;20048;-61
2022/11/20 05:55:26;;;;;;;;;;;;;;;;;;5010873;28;19928;-61
2022/11/20 05:57:51;;;;;;;;;;;;;;;;;;5015859;28;20003;-62
2022/11/20 06:00:17;;;;;;;;;;;;;;;;;;5012884;28;20365;-61
2022/11/20 06:02:43;;;;;;;;;;;;;;;;;;5012032;28;19913;-61
2022/11/20 06:05:09;;;;;;;;;;;;;;;;;;5010301;28;20441;-61
2022/11/20 06:07:35;;;;;;;;;;;;;;;;;;5010014;28;19909;-61
2022/11/20 06:10:01;;;;;;;;;;;;;;;;;;5010719;28;19916;-61
2022/11/20 06:12:27;;;;;;;;;;;;;;;;;;5010205;28;19913;-61
2022/11/20 06:14:53;;;;;;;;;;;;;;;;;;5010474;28;19918;-61
2022/11/20 06:17:19;;;;;;;;;;;;;;;;;;5012069;28;19914;-61
2022/11/20 06:19:44;;;;;;;;;;;;;;;;;;5010485;28;19918;-62
2022/11/20 06:22:10;;;;;;;;;;;;;;;;;;5009689;28;20008;-61
2022/11/20 06:24:36;;;;;;;;;;;;;;;;;;5010333;28;20020;-61
2022/11/20 06:27:02;;;;;;;;;;;;;;;;;;5012365;28;20911;-62
2022/11/20 06:29:28;;;;;;;;;;;;;;;;;;5022172;28;20378;-62
2022/11/20 06:31:54;;;;;;;;;;;;;;;;;;5015206;28;19917;-61
2022/11/20 06:34:20;;;;;;;;;;;;;;;;;;5010420;28;19921;-61
2022/11/20 06:36:46;;;;;;;;;;;;;;;;;;5013549;28;19921;-61
2022/11/20 06:39:12;;;;;;;;;;;;;;;;;;5011730;28;19922;-61
2022/11/20 06:41:38;;;;;;;;;;;;;;;;;;5014594;28;19913;-61
2022/11/20 06:44:04;;;;;;;;;;;;;;;;;;5009956;28;19913;-61
2022/11/20 06:46:30;;;;;;;;;;;;;;;;;;5011293;28;19918;-61
2022/11/20 06:48:56;;;;;;;;;;;;;;;;;;5010042;28;20699;-61
2022/11/20 06:51:21;;;;;;;;;;;;;;;;;;5009941;28;19937;-61
2022/11/20 06:53:48;;;;;;;;;;;;;;;;;;5038121;28;20369;-61
2022/11/20 06:56:14;;;;;;;;;;;;;;;;;;5029296;28;19917;-62
2022/11/20 06:58:40;;;;;;;;;;;;;;;;;;5033007;28;19913;-61
2022/11/20 07:01:06;;;;;;;;;;;;;;;;;;5033136;28;20308;-61
2022/11/20 07:03:32;;;;;;;;;;;;;;;;;;5017295;28;19957;-61
2022/11/20 07:05:57;;;;;;;;;;;;;;;;;;5013614;28;19913;-61
2022/11/20 07:08:24;;;;;;;;;;;;;;;;;;5013337;28;20460;-60
2022/11/20 07:10:50;;;;;;;;;;;;;;;;;;5013553;28;20023;-61
2022/11/20 07:13:15;;;;;;;;;;;;;;;;;;5013637;28;20073;-61
2022/11/20 07:15:41;;;;;;;;;;;;;;;;;;5013765;28;19921;-61
2022/11/20 07:18:07;;;;;;;;;;;;;;;;;;5013872;28;19913;-60
2022/11/20 07:20:33;;;;;;;;;;;;;;;;;;5012858;28;19920;-61
2022/11/20 07:22:59;;;;;;;;;;;;;;;;;;5013296;28;19913;-61
2022/11/20 07:25:25;;;;;;;;;;;;;;;;;;5013455;28;20278;-61
2022/11/20 07:27:51;;;;;;;;;;;;;;;;;;5013539;28;20011;-61
2022/11/20 07:30:17;;;;;;;;;;;;;;;;;;5018502;28;19918;-61
2022/11/20 07:32:43;;;;;;;;;;;;;;;;;;5013106;28;19917;-61
2022/11/20 07:35:09;;;;;;;;;;;;;;;;;;5013021;28;20016;-62
2022/11/20 07:37:35;;;;;;;;;;;;;;;;;;5012708;28;19919;-61
2022/11/20 07:40:00;;;;;;;;;;;;;;;;;;5013102;28;19906;-61
2022/11/20 07:42:26;;;;;;;;;;;;;;;;;;5012475;28;20004;-61
2022/11/20 07:44:52;;;;;;;;;;;;;;;;;;5013327;28;19916;-62
2022/11/20 07:47:18;;;;;;;;;;;;;;;;;;5013887;28;19913;-61
2022/11/20 07:49:44;;;;;;;;;;;;;;;;;;5014904;28;20000;-62
2022/11/20 07:52:10;;;;;;;;;;;;;;;;;;5012424;28;19914;-61
2022/11/20 07:54:36;;;;;;;;;;;;;;;;;;5012739;28;19976;-60
2022/11/20 07:57:02;;;;;;;;;;;;;;;;;;5013475;28;20397;-61
2022/11/20 07:59:27;;;;;;;;;;;;;;;;;;5015382;28;19913;-61
2022/11/20 08:01:53;;;;;;;;;;;;;;;;;;5012264;28;19913;-61
2022/11/20 08:04:19;;;;;;;;;;;;;;;;;;5017507;28;19960;-60
2022/11/20 08:06:45;;;;;;;;;;;;;;;;;;5010916;28;19952;-61
2022/11/20 08:09:11;;;;;;;;;;;;;;;;;;5015841;28;19909;-61
2022/11/20 08:14:22;;;;;;;;;;;;;;;;;;5012210;28;19920;-66
2022/11/20 08:16:48;;;;;;;;;;;;;;;;;;5014048;28;19917;-70
2022/11/20 08:19:14;;;;;;;;;;;;;;;;;;5011019;28;19920;-68
2022/11/20 08:21:40;;;;;;;;;;;;;;;;;;5015459;28;19932;-74
2022/11/20 08:24:05;;;;;;;;;;;;;;;;;;5019256;28;19924;-74
2022/11/20 08:26:31;;;;;;;;;;;;;;;;;;5013321;28;19918;-75
2022/11/20 08:28:57;;;;;;;;;;;;;;;;;;5019982;28;19928;-73
2022/11/20 08:31:23;;;;;;;;;;;;;;;;;;5025994;28;20009;-73
2022/11/20 08:33:50;;;;;;;;;;;;;;;;;;5025685;28;19929;-74
2022/11/20 08:36:16;;;;;;;;;;;;;;;;;;5027279;28;20389;-74
2022/11/20 08:38:42;;;;;;;;;;;;;;;;;;5015457;28;19917;-74
2022/11/20 08:41:23;;;;;;;;;;;;;;;;;;5010882;28;19960;-73
2022/11/20 08:43:49;;;;;;;;;;;;;;;;;;5011179;28;20004;-72
2022/11/20 08:46:15;;;;;;;;;;;;;;;;;;5011261;28;20020;-73
2022/11/20 08:48:41;;;;;;;;;;;;;;;;;;5012940;28;20027;-73
2022/11/20 08:51:07;;;;;;;;;;;;;;;;;;5018812;28;19917;-72
2022/11/20 08:53:32;;;;;;;;;;;;;;;;;;5018494;28;19964;-72
2022/11/20 08:55:58;;;;;;;;;;;;;;;;;;5020223;28;19991;-73
2022/11/20 08:58:24;;;;;;;;;;;;;;;;;;5018481;28;19920;-72
2022/11/20 09:00:50;;;;;;;;;;;;;;;;;;5021661;28;19978;-73
2022/11/20 09:03:16;;;;;;;;;;;;;;;;;;5020707;28;19913;-73
2022/11/20 09:05:42;;;;;;;;;;;;;;;;;;5019344;28;19913;-72
2022/11/20 09:08:08;;;;;;;;;;;;;;;;;;5021206;28;19969;-72
2022/11/20 09:10:34;;;;;;;;;;;;;;;;;;5015452;28;19921;-72
2022/11/20 09:13:01;;;;;;;;;;;;;;;;;;5018422;28;20353;-73
2022/11/20 09:15:27;;;;;;;;;;;;;;;;;;5033997;28;19925;-68
2022/11/20 09:17:53;;;;;;;;;;;;;;;;;;5017991;28;19924;-72
2022/11/20 09:20:19;;;;;;;;;;;;;;;;;;5016387;28;19925;-73
2022/11/20 09:22:45;;;;;;;;;;;;;;;;;;5019727;28;20285;-73
2022/11/20 09:25:11;;;;;;;;;;;;;;;;;;5015680;28;20282;-71
2022/11/20 09:27:37;;;;;;;;;;;;;;;;;;5020800;28;19929;-72
2022/11/20 09:30:02;;;;;;;;;;;;;;;;;;5021268;28;19932;-72
2022/11/20 09:32:28;;;;;;;;;;;;;;;;;;5021301;28;19917;-73
2022/11/20 09:34:54;;;;;;;;;;;;;;;;;;5019940;28;19925;-73
2022/11/20 09:37:20;;;;;;;;;;;;;;;;;;5017774;28;20055;-73
2022/11/20 09:39:46;;;;;;;;;;;;;;;;;;5018359;28;19925;-73
2022/11/20 09:42:12;;;;;;;;;;;;;;;;;;5018598;28;19918;-73
2022/11/20 09:44:38;;;;;;;;;;;;;;;;;;5018867;28;20599;-71
2022/11/20 09:47:04;;;;;;;;;;;;;;;;;;5018550;28;19917;-72
2022/11/20 09:49:30;;;;;;;;;;;;;;;;;;5019387;28;19983;-71
2022/11/20 09:51:56;;;;;;;;;;;;;;;;;;5016818;28;20285;-72
2022/11/20 09:54:22;;;;;;;;;;;;;;;;;;5018851;28;20405;-70
2022/11/20 09:56:50;;;;;;;;;;;;;;;;;;5016642;28;20307;-70
2022/11/20 09:59:16;;;;;;;;;;;;;;;;;;5016123;28;20063;-71
2022/11/20 10:01:43;;;;;;;;;;;;;;;;;;5015532;28;19996;-72
2022/11/20 10:04:08;;;;;;;;;;;;;;;;;;5015176;28;20448;-70
2022/11/20 10:06:34;;;;;;;;;;;;;;;;;;5019654;28;20008;-73
2022/11/20 10:09:00;;;;;;;;;;;;;;;;;;5016238;28;19912;-73
2022/11/20 10:11:26;;;;;;;;;;;;;;;;;;5017326;28;19983;-73
2022/11/20 10:13:52;;;;;;;;;;;;;;;;;;5018945;28;19935;-71
2022/11/20 10:16:18;;;;;;;;;;;;;;;;;;5016386;28;19928;-73
2022/11/20 10:18:44;;;;;;;;;;;;;;;;;;5018769;28;20274;-73
2022/11/20 10:21:10;;;;;;;;;;;;;;;;;;5015917;28;19966;-73
2022/11/20 10:23:36;;;;;;;;;;;;;;;;;;5023559;28;19920;-73
2022/11/20 10:26:02;;;;;;;;;;;;;;;;;;5024129;28;19943;-73
2022/11/20 10:28:28;;;;;;;;;;;;;;;;;;5022207;28;20483;-74
2022/11/20 10:30:54;;;;;;;;;;;;;;;;;;5026386;28;20308;-74
2022/11/20 10:33:20;;;;;;;;;;;;;;;;;;5017888;28;19924;-72
2022/11/20 10:35:46;;;;;;;;;;;;;;;;;;5020572;28;19928;-72
2022/11/20 10:38:12;;;;;;;;;;;;;;;;;;5014716;28;19913;-72
2022/11/20 10:40:38;;;;;;;;;;;;;;;;;;5018773;28;19917;-72
2022/11/20 10:43:04;;;;;;;;;;;;;;;;;;5015118;28;20004;-71
2022/11/20 10:45:31;;;;;;;;;;;;;;;;;;5023309;28;19917;-72
2022/11/20 10:47:57;;;;;;;;;;;;;;;;;;5016033;28;19945;-71
2022/11/20 10:50:23;;;;;;;;;;;;;;;;;;5018406;28;20440;-71
2022/11/20 10:52:48;;;;;;;;;;;;;;;;;;5029782;28;20003;-71
2022/11/20 10:55:14;;;;;;;;;;;;;;;;;;5015730;28;19960;-72
2022/11/20 10:57:40;;;;;;;;;;;;;;;;;;5017133;28;19917;-71
2022/11/20 11:00:06;;;;;;;;;;;;;;;;;;5018340;28;19917;-74
2022/11/20 11:02:33;;;;;;;;;;;;;;;;;;5017989;28;20027;-71
2022/11/20 11:04:59;;;;;;;;;;;;;;;;;;5015783;28;19932;-71
2022/11/20 11:07:25;;;;;;;;;;;;;;;;;;5018341;28;19979;-73
2022/11/20 11:09:50;;;;;;;;;;;;;;;;;;5020042;28;19952;-69
2022/11/20 11:12:16;;;;;;;;;;;;;;;;;;5016207;28;19917;-73
2022/11/20 11:14:42;;;;;;;;;;;;;;;;;;5017407;28;19921;-73
2022/11/20 11:17:08;;;;;;;;;;;;;;;;;;5018681;28;19952;-72
2022/11/20 11:19:34;;;;;;;;;;;;;;;;;;5018060;28;20029;-74
2022/11/20 11:22:00;;;;;;;;;;;;;;;;;;5017254;28;19956;-74
2022/11/20 11:24:26;;;;;;;;;;;;;;;;;;5010846;28;19964;-72
2022/11/20 11:26:52;;;;;;;;;;;;;;;;;;5014353;28;20474;-72
2022/11/20 11:29:18;;;;;;;;;;;;;;;;;;5016115;28;19917;-72
2022/11/20 11:31:43;;;;;;;;;;;;;;;;;;5009601;28;19914;-72
2022/11/20 11:34:09;;;;;;;;;;;;;;;;;;5009369;28;20526;-72
2022/11/20 11:36:35;;;;;;;;;;;;;;;;;;5011266;28;19980;-72
2022/11/20 11:39:01;;;;;;;;;;;;;;;;;;5009318;28;19925;-72
2022/11/20 11:41:27;;;;;;;;;;;;;;;;;;5016754;28;20519;-72
2022/11/20 11:46:38;;;;;;;;;;;;;;;;;;5025362;28;20698;-72
2022/11/20 11:49:04;;;;;;;;;;;;;;;;;;5012527;28;19913;-72
2022/11/20 11:51:30;;;;;;;;;;;;;;;;;;5013096;28;19910;-72
2022/11/20 11:53:56;;;;;;;;;;;;;;;;;;5014363;28;19909;-72
2022/11/20 11:56:21;;;;;;;;;;;;;;;;;;5011961;28;19921;-72
2022/11/20 11:58:48;;;;;;;;;;;;;;;;;;5015139;28;20385;-72
2022/11/20 12:01:14;;;;;;;;;;;;;;;;;;5016155;28;20049;-73
2022/11/20 12:03:41;;;;;;;;;;;;;;;;;;5012958;28;20297;-72
2022/11/20 12:06:07;;;;;;;;;;;;;;;;;;5016806;28;19917;-72
2022/11/20 12:08:33;;;;;;;;;;;;;;;;;;5012182;28;19917;-72
2022/11/20 12:10:59;;;;;;;;;;;;;;;;;;5012339;28;19910;-73
2022/11/20 12:13:25;;;;;;;;;;;;;;;;;;5016755;28;19913;-72
2022/11/20 12:15:51;;;;;;;;;;;;;;;;;;5016840;28;20388;-71
2022/11/20 12:18:16;;;;;;;;;;;;;;;;;;5012196;28;20114;-72
2022/11/20 12:20:42;;;;;;;;;;;;;;;;;;5011937;28;20266;-72
2022/11/20 12:23:08;;;;;;;;;;;;;;;;;;5035277;28;19920;-72
2022/11/20 12:25:34;;;;;;;;;;;;;;;;;;5024742;28;19909;-73
2022/11/20 12:28:00;;;;;;;;;;;;;;;;;;5012205;28;20516;-72
2022/11/20 12:30:26;;;;;;;;;;;;;;;;;;5015547;28;19914;-73
2022/11/20 12:32:52;;;;;;;;;;;;;;;;;;5012033;28;19909;-72
2022/11/20 12:35:18;;;;;;;;;;;;;;;;;;5011866;28;19917;-72
2022/11/20 12:37:44;;;;;;;;;;;;;;;;;;5015692;28;20387;-72
2022/11/20 12:40:09;;;;;;;;;;;;;;;;;;5011574;28;19933;-72
2022/11/20 12:45:20;;;;;;;;;;;;;;;;;;5011962;28;20016;-72
2022/11/20 12:47:46;;;;;;;;;;;;;;;;;;5011447;28;20005;-72
2022/11/20 12:50:12;;;;;;;;;;;;;;;;;;5011858;28;19921;-71
2022/11/20 12:52:38;;;;;;;;;;;;;;;;;;5010605;28;19921;-72
2022/11/20 12:55:04;;;;;;;;;;;;;;;;;;5010919;28;19925;-72
2022/11/20 12:57:30;;;;;;;;;;;;;;;;;;5011053;28;19929;-72
2022/11/20 12:59:56;;;;;;;;;;;;;;;;;;5039474;28;19913;-71
2022/11/20 13:02:21;;;;;;;;;;;;;;;;;;5011253;28;19913;-71
2022/11/20 13:04:47;;;;;;;;;;;;;;;;;;5011564;28;19983;-72
2022/11/20 13:07:14;;;;;;;;;;;;;;;;;;5012084;28;19909;-72
2022/11/20 13:09:40;;;;;;;;;;;;;;;;;;5015509;28;20021;-71
2022/11/20 13:12:06;;;;;;;;;;;;;;;;;;5011198;28;19914;-72
2022/11/20 13:14:31;;;;;;;;;;;;;;;;;;5011119;28;19936;-71
2022/11/20 13:16:57;;;;;;;;;;;;;;;;;;5010992;28;19929;-72
2022/11/20 13:19:23;;;;;;;;;;;;;;;;;;5010848;28;19917;-73
2022/11/20 13:21:50;;;;;;;;;;;;;;;;;;5011081;28;19996;-72
2022/11/20 13:24:15;;;;;;;;;;;;;;;;;;5017361;28;20000;-72
2022/11/20 13:26:41;;;;;;;;;;;;;;;;;;5017535;28;19999;-71
2022/11/20 13:29:07;;;;;;;;;;;;;;;;;;5031128;28;19928;-72
2022/11/20 13:31:33;;;;;;;;;;;;;;;;;;5010971;28;19959;-72
2022/11/20 13:33:59;;;;;;;;;;;;;;;;;;5018033;28;19914;-71
2022/11/20 13:36:25;;;;;;;;;;;;;;;;;;5016464;28;19921;-68
2022/11/20 13:38:51;;;;;;;;;;;;;;;;;;5011047;28;20424;-72
2022/11/20 13:41:31;;;;;;;;;;;;;;;;;;5029169;28;19917;-72
2022/11/20 13:43:57;;;;;;;;;;;;;;;;;;5029731;28;19951;-72
2022/11/20 13:46:24;;;;;;;;;;;;;;;;;;5030002;28;19995;-72
2022/11/20 13:48:50;;;;;;;;;;;;;;;;;;5030124;28;19937;-72
2022/11/20 13:51:16;;;;;;;;;;;;;;;;;;5016561;28;19917;-73
2022/11/20 13:53:42;;;;;;;;;;;;;;;;;;5015811;28;20753;-74
2022/11/20 13:56:08;;;;;;;;;;;;;;;;;;5017346;28;19932;-74
2022/11/20 13:58:34;;;;;;;;;;;;;;;;;;5018441;28;19917;-76
2022/11/20 14:01:00;;;;;;;;;;;;;;;;;;5015059;28;19913;-74
2022/11/20 14:03:25;;;;;;;;;;;;;;;;;;5018644;28;19956;-76
2022/11/20 14:05:51;;;;;;;;;;;;;;;;;;5017885;28;19921;-74
2022/11/20 14:08:17;;;;;;;;;;;;;;;;;;5022720;28;19926;-74
2022/11/20 14:10:43;;;;;;;;;;;;;;;;;;5017177;28;20348;-75
2022/11/20 14:13:09;;;;;;;;;;;;;;;;;;5019390;28;19953;-75
2022/11/20 14:15:36;;;;;;;;;;;;;;;;;;5015682;28;19968;-75
2022/11/20 14:18:02;;;;;;;;;;;;;;;;;;5017728;28;19917;-74
2022/11/20 14:20:28;;;;;;;;;;;;;;;;;;5013601;28;19975;-73
2022/11/20 14:22:53;;;;;;;;;;;;;;;;;;5017597;28;19944;-73
2022/11/20 14:25:21;;;;;;;;;;;;;;;;;;5018630;28;20362;-73
2022/11/20 14:27:47;;;;;;;;;;;;;;;;;;5015496;28;19941;-74
2022/11/20 14:30:13;;;;;;;;;;;;;;;;;;5015938;28;19924;-75
2022/11/20 14:32:39;;;;;;;;;;;;;;;;;;5018625;28;19987;-74
2022/11/20 14:35:05;;;;;;;;;;;;;;;;;;5018835;28;19932;-73
2022/11/20 14:37:31;;;;;;;;;;;;;;;;;;5016682;28;19926;-74
2022/11/20 14:39:58;;;;;;;;;;;;;;;;;;5016320;28;19917;-75
2022/11/20 14:42:24;;;;;;;;;;;;;;;;;;5016727;28;20382;-74
2022/11/20 14:44:50;;;;;;;;;;;;;;;;;;5016374;28;19940;-75
2022/11/20 14:47:17;;;;;;;;;;;;;;;;;;5032634;28;19996;-74
2022/11/20 14:49:43;;;;;;;;;;;;;;;;;;5018661;28;20282;-74
2022/11/20 14:52:09;;;;;;;;;;;;;;;;;;5018008;28;19932;-74
2022/11/20 14:54:34;;;;;;;;;;;;;;;;;;5018549;28;20003;-74
2022/11/20 14:57:01;;;;;;;;;;;;;;;;;;5016349;28;20339;-76
2022/11/20 14:59:27;;;;;;;;;;;;;;;;;;5017632;28;19929;-76
2022/11/20 15:01:53;;;;;;;;;;;;;;;;;;5013208;28;19918;-73
2022/11/20 15:04:18;;;;;;;;;;;;;;;;;;5016055;28;19921;-75
2022/11/20 15:06:44;;;;;;;;;;;;;;;;;;5016307;28;19920;-76
2022/11/20 15:09:10;;;;;;;;;;;;;;;;;;5016264;28;19919;-74
2022/11/20 15:11:36;;;;;;;;;;;;;;;;;;5021147;28;20008;-74
2022/11/20 15:14:02;;;;;;;;;;;;;;;;;;5014728;28;20017;-76
2022/11/20 15:16:28;;;;;;;;;;;;;;;;;;5022739;28;20003;-76
2022/11/20 15:18:55;;;;;;;;;;;;;;;;;;5022585;28;19960;-76
2022/11/20 15:21:21;;;;;;;;;;;;;;;;;;5023540;28;19920;-75
2022/11/20 15:23:47;;;;;;;;;;;;;;;;;;5018415;28;20377;-76
2022/11/20 15:26:13;;;;;;;;;;;;;;;;;;5034520;28;20397;-76
2022/11/20 15:28:38;;;;;;;;;;;;;;;;;;5019039;28;19925;-75
2022/11/20 15:31:04;;;;;;;;;;;;;;;;;;5022379;28;20244;-75
2022/11/20 15:33:30;;;;;;;;;;;;;;;;;;5020176;28;19914;-77
2022/11/20 15:35:56;;;;;;;;;;;;;;;;;;5020303;28;19921;-78
2022/11/20 15:38:22;;;;;;;;;;;;;;;;;;5020522;28;20012;-79
2022/11/20 15:40:48;;;;;;;;;;;;;;;;;;5022836;28;20020;-79
2022/11/20 15:43:14;;;;;;;;;;;;;;;;;;5020513;28;19913;-75
2022/11/20 15:45:40;;;;;;;;;;;;;;;;;;5024876;28;19976;-75
2022/11/20 15:48:06;;;;;;;;;;;;;;;;;;5022603;28;19917;-76
2022/11/20 15:50:32;;;;;;;;;;;;;;;;;;5019899;28;19992;-75
2022/11/20 15:52:57;;;;;;;;;;;;;;;;;;5022105;28;19917;-76
2022/11/20 15:55:23;;;;;;;;;;;;;;;;;;5021713;28;19921;-76
2022/11/20 15:57:49;;;;;;;;;;;;;;;;;;5018434;28;19995;-77
2022/11/20 16:00:15;;;;;;;;;;;;;;;;;;5019388;28;19921;-77
2022/11/20 16:02:41;;;;;;;;;;;;;;;;;;5023965;28;19971;-76
2022/11/20 16:05:07;;;;;;;;;;;;;;;;;;5018051;28;20008;-76
2022/11/20 16:07:33;;;;;;;;;;;;;;;;;;5021490;28;19917;-74
2022/11/20 16:09:59;;;;;;;;;;;;;;;;;;5019965;28;19914;-75
2022/11/20 16:17:54;;;;;;;;;;;;;;;;;;5022595;28;19921;-73
2022/11/20 16:20:19;;;;;;;;;;;;;;;;;;5021054;28;19937;-73
2022/11/20 16:22:45;;;;;;;;;;;;;;;;;;5022578;28;19914;-73
2022/11/20 16:25:11;;;;;;;;;;;;;;;;;;5023956;28;20084;-74
2022/11/20 16:27:37;;;;;;;;;;;;;;;;;;5027324;28;21000;-73
2022/11/20 16:30:03;;;;;;;;;;;;;;;;;;5024935;28;19925;-74
2022/11/20 16:32:29;;;;;;;;;;;;;;;;;;5024037;28;19913;-73
2022/11/20 16:34:55;;;;;;;;;;;;;;;;;;5024010;28;20386;-72
2022/11/20 16:37:21;;;;;;;;;;;;;;;;;;5023615;28;20055;-74
2022/11/20 16:39:47;;;;;;;;;;;;;;;;;;5026480;28;20297;-73
2022/11/20 16:42:12;;;;;;;;;;;;;;;;;;5025160;28;19917;-73
2022/11/20 16:44:38;;;;;;;;;;;;;;;;;;5025116;28;20476;-75
2022/11/20 16:47:04;;;;;;;;;;;;;;;;;;5023512;28;19917;-74
2022/11/20 16:49:32;;;;;;;;;;;;;;;;;;5025740;28;19936;-74
2022/11/20 16:51:57;;;;;;;;;;;;;;;;;;5018432;28;19909;-73
2022/11/20 16:54:23;;;;;;;;;;;;;;;;;;5010918;28;19929;-74